createdAt,value
2023-03-04T00:01:05.150Z,33.50
2023-03-04T00:06:09.540Z,33.10
2023-03-04T00:11:11.855Z,38.10
2023-03-04T00:16:13.760Z,37.80
2023-03-04T00:21:15.493Z,39.40
2023-03-04T00:31:20.613Z,36.60
2023-03-04T00:41:24.716Z,40.10
2023-03-04T00:46:27.251Z,38.10
2023-03-04T00:51:30.626Z,40.00
2023-03-04T00:56:32.460Z,40.30
2023-03-04T01:01:34.541Z,36.90
2023-03-04T01:06:36.573Z,33.40
2023-03-04T01:11:38.514Z,34.40
2023-03-04T01:16:40.298Z,37.80
2023-03-04T01:21:42.039Z,32.80
2023-03-04T01:31:45.303Z,32.10
2023-03-04T01:36:47.813Z,32.70
2023-03-04T01:41:49.689Z,35.00
2023-03-04T01:46:54.937Z,34.20
2023-03-04T01:51:56.792Z,32.80
2023-03-04T01:57:00.373Z,32.50
2023-03-04T02:02:02.380Z,33.90
2023-03-04T02:07:05.990Z,34.50
2023-03-04T02:12:07.700Z,31.90
2023-03-04T02:17:13.088Z,31.80
2023-03-04T02:22:15.190Z,29.90
2023-03-04T02:27:16.896Z,33.30
2023-03-04T02:32:18.917Z,32.50
2023-03-04T02:37:21.797Z,35.10
2023-03-04T02:42:24.626Z,29.80
2023-03-04T02:47:26.662Z,32.10
2023-03-04T02:52:30.036Z,34.50
2023-03-04T02:57:32.984Z,31.50
2023-03-04T03:02:34.891Z,33.70
2023-03-04T03:07:37.122Z,30.20
2023-03-04T03:12:39.430Z,31.20
2023-03-04T03:17:42.219Z,30.90
2023-03-04T03:22:44.356Z,26.80
2023-03-04T03:27:46.197Z,31.10
2023-03-04T03:32:48.595Z,28.30
2023-03-04T03:37:50.641Z,29.30
2023-03-04T03:42:52.284Z,31.70
2023-03-04T03:52:56.132Z,34.70
2023-03-04T03:57:57.895Z,33.70
2023-03-04T04:03:00.927Z,33.10
2023-03-04T04:08:02.786Z,29.90
2023-03-04T04:13:04.465Z,34.80
2023-03-04T04:23:08.601Z,26.50
2023-03-04T04:28:10.586Z,29.10
2023-03-04T04:33:12.289Z,31.20
2023-03-04T04:38:14.005Z,33.60
2023-03-04T04:43:15.756Z,28.50
2023-03-04T04:48:17.594Z,34.00
2023-03-04T04:53:19.245Z,34.70
2023-03-04T05:06:13.369Z,33.90
2023-03-04T05:11:15.771Z,32.30
2023-03-04T05:16:18.009Z,33.80
2023-03-04T05:21:20.041Z,38.00
2023-03-04T05:26:21.732Z,34.70
2023-03-04T05:31:23.696Z,34.80
2023-03-04T05:36:25.620Z,36.60
2023-03-04T05:41:27.400Z,32.80
2023-03-04T05:46:30.244Z,22.20
2023-03-04T05:51:33.532Z,33.90
2023-03-04T05:56:35.261Z,29.30
2023-03-04T06:01:36.944Z,32.40
2023-03-04T06:11:41.013Z,33.00
2023-03-04T06:16:42.743Z,32.50
2023-03-04T06:21:44.443Z,30.90
2023-03-04T06:31:47.901Z,30.40
2023-03-04T06:36:50.310Z,25.90
2023-03-04T06:41:52.045Z,27.10
2023-03-04T06:51:55.383Z,27.00
2023-03-04T06:56:57.053Z,26.30
2023-03-04T07:07:00.416Z,26.80
2023-03-04T07:12:02.199Z,26.80
2023-03-04T07:17:03.928Z,26.80
2023-03-04T07:22:06.113Z,27.10
2023-03-04T07:27:07.800Z,27.50
2023-03-04T07:32:10.587Z,24.00
2023-03-04T07:37:12.374Z,24.30
2023-03-04T07:42:14.063Z,28.80
2023-03-04T07:47:16.063Z,18.00
2023-03-04T07:57:19.418Z,22.70
2023-03-04T08:12:26.023Z,21.20
2023-03-04T08:17:29.869Z,22.20
2023-03-04T08:22:31.557Z,24.30
2023-03-04T08:27:33.443Z,23.00
2023-03-04T08:32:35.402Z,23.80
2023-03-04T08:37:37.208Z,18.40
2023-03-04T08:47:41.039Z,20.70
2023-03-04T08:52:42.881Z,17.80
2023-03-04T09:07:47.846Z,19.60
2023-03-04T09:17:51.218Z,21.60
2023-03-04T09:22:52.984Z,21.80
2023-03-04T09:37:59.471Z,19.30
2023-03-04T09:43:04.133Z,23.30
2023-03-04T09:48:08.231Z,22.80
2023-03-04T09:53:23.285Z,25.20
2023-03-04T09:58:42.255Z,21.20
2023-03-04T10:03:49.772Z,22.80
2023-03-04T10:09:02.794Z,18.80
2023-03-04T10:14:23.096Z,20.90
2023-03-04T10:19:37.190Z,21.20
2023-03-04T10:24:38.941Z,20.40
2023-03-04T10:34:42.316Z,27.60
2023-03-04T10:39:46.765Z,35.30
2023-03-04T10:44:52.950Z,40.00
2023-03-04T10:49:57.615Z,39.70
2023-03-04T10:55:04.334Z,39.40
2023-03-04T11:00:18.148Z,36.10
2023-03-04T11:05:22.998Z,36.60
2023-03-04T11:10:40.593Z,33.40
2023-03-04T11:16:21.964Z,35.10
2023-03-04T11:21:27.023Z,33.50
2023-03-04T11:26:40.079Z,32.70
2023-03-04T11:31:49.206Z,32.50
2023-03-04T11:37:08.048Z,38.20
2023-03-04T11:42:20.795Z,32.70
2023-03-04T11:47:34.083Z,26.90
2023-03-04T11:52:47.899Z,27.00
2023-03-04T11:58:07.108Z,25.70
2023-03-04T12:03:47.606Z,27.10
2023-03-04T12:09:04.965Z,28.50
2023-03-04T12:14:21.637Z,23.70
2023-03-04T12:19:30.121Z,23.70
2023-03-04T12:24:34.807Z,23.20
2023-03-04T12:29:51.350Z,24.20
2023-03-04T12:35:05.082Z,20.80
2023-03-04T12:40:20.810Z,20.20
2023-03-04T12:45:28.457Z,29.20
2023-03-04T12:50:53.416Z,24.00
2023-03-04T12:55:57.260Z,22.00
2023-03-04T13:01:34.753Z,27.00
2023-03-04T13:06:54.722Z,23.00
2023-03-04T13:12:20.373Z,18.60
2023-03-04T13:17:43.861Z,15.70
2023-03-04T13:22:51.677Z,11.00
2023-03-04T13:28:03.506Z,11.40
2023-03-04T13:38:23.426Z,8.10
2023-03-04T13:43:28.609Z,9.70
2023-03-04T13:48:36.516Z,9.40
2023-03-04T13:53:40.846Z,8.00
2023-03-04T13:59:02.289Z,7.20
2023-03-04T14:04:38.047Z,8.90
2023-03-04T14:09:40.036Z,9.90
2023-03-04T14:14:50.427Z,34.50
2023-03-04T14:19:53.938Z,35.00
2023-03-04T14:25:14.235Z,33.80
2023-03-04T14:30:40.850Z,29.30
2023-03-04T14:35:49.219Z,30.70
2023-03-04T14:40:55.900Z,28.90
2023-03-04T14:46:01.121Z,27.50
2023-03-04T14:51:03.797Z,29.30
2023-03-04T14:56:16.112Z,26.20
2023-03-04T15:01:22.674Z,29.10
2023-03-04T15:06:26.551Z,30.50
2023-03-04T15:11:49.702Z,30.80
2023-03-04T15:16:57.073Z,26.60
2023-03-04T15:22:07.092Z,29.10
2023-03-04T15:27:12.403Z,38.30
2023-03-04T15:32:14.329Z,36.60
2023-03-04T15:37:42.987Z,36.60
2023-03-04T15:42:44.742Z,30.00
2023-03-04T15:47:46.562Z,32.50
2023-03-04T15:52:50.881Z,33.20
2023-03-04T15:57:55.882Z,31.40
2023-03-04T16:02:58.425Z,33.30
2023-03-04T16:08:00.129Z,29.10
2023-03-04T16:18:04.303Z,32.00
2023-03-04T16:23:10.738Z,32.00
2023-03-04T16:28:13.282Z,35.30
2023-03-04T16:33:16.480Z,33.20
2023-03-04T16:38:27.102Z,35.10
2023-03-04T16:43:29.080Z,34.60
2023-03-04T16:48:30.824Z,34.80
2023-03-04T16:53:36.137Z,33.60
2023-03-04T16:58:37.895Z,37.20
2023-03-04T17:03:39.580Z,35.50
2023-03-04T17:13:44.041Z,35.60
2023-03-04T17:18:46.248Z,31.20
2023-03-04T17:23:48.509Z,33.60
2023-03-04T17:28:51.672Z,28.80
2023-03-04T17:33:53.442Z,21.90
2023-03-04T17:43:57.130Z,20.20
2023-03-04T17:48:59.670Z,21.60
2023-03-04T17:54:02.187Z,20.90
2023-03-04T17:59:06.590Z,25.70
2023-03-04T18:04:08.410Z,35.10
2023-03-04T18:09:10.230Z,32.40
2023-03-04T18:14:12.851Z,32.30
2023-03-04T18:19:16.337Z,27.80
2023-03-04T18:24:20.048Z,20.60
2023-03-04T18:29:21.763Z,17.50
2023-03-04T18:39:25.146Z,16.30
2023-03-04T18:44:26.820Z,17.20
2023-03-04T18:54:32.888Z,15.10
2023-03-04T18:59:47.139Z,13.80
2023-03-04T19:04:50.179Z,12.30
2023-03-04T19:09:51.866Z,15.30
2023-03-04T19:24:57.066Z,13.70
2023-03-04T19:29:58.968Z,13.00
2023-03-04T19:35:01.272Z,15.60
2023-03-04T19:40:03.940Z,15.20
2023-03-04T19:45:09.705Z,8.90
2023-03-04T19:50:13.349Z,14.80
2023-03-04T19:55:15.104Z,14.60
2023-03-04T20:00:17.337Z,12.50
2023-03-04T20:05:19.077Z,12.20
2023-03-04T20:10:20.883Z,13.30
2023-03-04T20:15:23.165Z,11.90
2023-03-04T20:20:28.666Z,11.90
2023-03-04T20:25:32.135Z,13.30
2023-03-04T20:30:33.773Z,12.90
2023-03-04T20:40:38.087Z,14.70
2023-03-04T20:45:39.810Z,15.00
2023-03-04T20:50:41.542Z,16.30
2023-03-04T21:00:44.813Z,14.50
2023-03-04T21:10:51.237Z,16.30
2023-03-04T21:15:53.271Z,16.80
2023-03-04T21:20:55.388Z,17.10
2023-03-04T21:30:58.903Z,17.50
2023-03-04T21:36:00.879Z,22.50
2023-03-04T21:41:02.865Z,18.70
2023-03-04T21:46:05.569Z,15.70
2023-03-04T21:51:08.463Z,13.60
2023-03-04T21:56:12.059Z,8.30
2023-03-04T22:01:16.953Z,7.20
2023-03-04T22:06:22.122Z,11.00
2023-03-04T22:11:24.530Z,12.80
2023-03-04T22:16:30.019Z,12.70
2023-03-04T22:21:31.834Z,13.30
2023-03-04T22:26:35.063Z,60.70
2023-03-04T22:31:38.475Z,28.60
2023-03-04T22:36:43.285Z,46.10
2023-03-04T22:41:45.857Z,29.30
2023-03-04T22:46:48.324Z,39.10
2023-03-04T22:51:53.057Z,24.80
2023-03-04T22:56:54.818Z,15.10
2023-03-04T23:01:57.255Z,12.10
2023-03-04T23:06:59.154Z,11.00
2023-03-04T23:12:01.323Z,12.70
2023-03-04T23:17:03.420Z,11.30
2023-03-04T23:22:05.453Z,11.90
2023-03-04T23:27:12.266Z,11.90
2023-03-04T23:32:14.072Z,13.10
2023-03-04T23:37:15.727Z,10.90
2023-03-04T23:47:19.118Z,10.40
2023-03-04T23:52:20.849Z,10.60
2023-03-04T23:57:22.529Z,10.90
